createdAt,value
2023-03-04T00:01:23.401Z,61.33
2023-03-04T00:03:51.846Z,60.98
2023-03-04T00:06:20.061Z,60.83
2023-03-04T00:08:48.153Z,60.87
2023-03-04T00:11:16.770Z,60.72
2023-03-04T00:13:45.151Z,60.72
2023-03-04T00:16:13.665Z,60.94
2023-03-04T00:18:42.090Z,61.07
2023-03-04T00:21:10.584Z,61.14
2023-03-04T00:23:38.954Z,61.35
2023-03-04T00:26:09.826Z,61.88
2023-03-04T00:28:38.904Z,62.93
2023-03-04T00:31:08.573Z,61.80
2023-03-04T00:33:39.333Z,61.59
2023-03-04T00:36:08.330Z,61.90
2023-03-04T00:38:36.764Z,61.82
2023-03-04T00:41:05.310Z,63.00
2023-03-04T00:43:33.842Z,62.18
2023-03-04T00:46:02.527Z,62.07
2023-03-04T00:48:31.064Z,61.76
2023-03-04T00:50:59.362Z,61.59
2023-03-04T00:53:27.852Z,62.44
2023-03-04T00:55:56.129Z,61.37
2023-03-04T00:58:25.202Z,61.19
2023-03-04T01:00:53.502Z,61.45
2023-03-04T01:03:21.922Z,61.07
2023-03-04T01:05:52.975Z,61.15
2023-03-04T01:08:21.462Z,60.72
2023-03-04T01:10:49.919Z,60.47
2023-03-04T01:13:19.029Z,60.80
2023-03-04T01:15:50.639Z,60.78
2023-03-04T01:18:18.964Z,60.53
2023-03-04T01:20:47.269Z,60.42
2023-03-04T01:23:15.990Z,60.28
2023-03-04T01:25:44.365Z,60.29
2023-03-04T01:28:12.758Z,60.56
2023-03-04T01:30:41.358Z,60.40
2023-03-04T01:33:10.175Z,60.37
2023-03-04T01:35:38.782Z,60.28
2023-03-04T01:38:07.261Z,60.52
2023-03-04T01:40:35.716Z,60.31
2023-03-04T01:43:04.214Z,60.49
2023-03-04T01:45:33.474Z,60.72
2023-03-04T01:48:02.322Z,60.50
2023-03-04T01:50:34.460Z,60.41
2023-03-04T01:53:04.674Z,61.07
2023-03-04T01:55:33.592Z,60.73
2023-03-04T01:58:02.047Z,60.79
2023-03-04T02:00:34.302Z,60.54
2023-03-04T02:03:09.126Z,60.68
2023-03-04T02:05:44.860Z,60.68
2023-03-04T02:08:15.410Z,60.98
2023-03-04T02:10:44.654Z,60.91
2023-03-04T02:13:14.149Z,61.24
2023-03-04T02:15:46.884Z,61.15
2023-03-04T02:18:21.862Z,61.08
2023-03-04T02:21:12.300Z,61.10
2023-03-04T02:24:01.106Z,61.31
2023-03-04T02:26:31.916Z,61.35
2023-03-04T02:29:02.036Z,61.20
2023-03-04T02:31:45.863Z,61.45
2023-03-04T02:34:15.580Z,61.10
2023-03-04T02:36:45.855Z,61.20
2023-03-04T02:39:32.759Z,61.20
2023-03-04T02:42:02.272Z,61.16
2023-03-04T02:44:32.982Z,61.12
2023-03-04T02:47:02.837Z,61.28
2023-03-04T02:49:34.000Z,61.01
2023-03-04T02:52:10.514Z,61.21
2023-03-04T02:54:39.882Z,61.27
2023-03-04T02:57:13.315Z,61.29
2023-03-04T02:59:42.562Z,61.53
2023-03-04T03:02:10.936Z,61.21
2023-03-04T03:04:41.076Z,61.29
2023-03-04T03:07:09.558Z,61.05
2023-03-04T03:09:37.945Z,61.00
2023-03-04T03:12:06.590Z,60.91
2023-03-04T03:14:35.058Z,61.03
2023-03-04T03:17:03.274Z,60.66
2023-03-04T03:19:31.567Z,60.84
2023-03-04T03:21:59.904Z,60.81
2023-03-04T03:24:28.331Z,60.93
2023-03-04T03:26:56.624Z,60.86
2023-03-04T03:29:24.906Z,60.44
2023-03-04T03:31:53.146Z,60.53
2023-03-04T03:34:21.650Z,60.42
2023-03-04T03:36:50.776Z,60.75
2023-03-04T03:39:19.004Z,60.53
2023-03-04T03:41:47.545Z,60.22
2023-03-04T03:44:16.541Z,60.22
2023-03-04T03:46:45.142Z,60.34
2023-03-04T03:49:13.642Z,60.50
2023-03-04T03:51:42.089Z,60.26
2023-03-04T03:54:10.559Z,60.30
2023-03-04T03:56:38.732Z,60.24
2023-03-04T03:59:07.238Z,60.47
2023-03-04T04:01:35.499Z,60.34
2023-03-04T04:04:04.351Z,60.51
2023-03-04T04:06:32.956Z,60.72
2023-03-04T04:09:01.387Z,60.44
2023-03-04T04:11:29.956Z,60.80
2023-03-04T04:13:58.285Z,60.63
2023-03-04T04:16:28.889Z,60.61
2023-03-04T04:18:57.440Z,60.85
2023-03-04T04:21:25.559Z,61.07
2023-03-04T04:23:53.830Z,60.87
2023-03-04T04:26:22.298Z,60.63
2023-03-04T04:28:50.557Z,60.62
2023-03-04T04:31:19.800Z,60.67
2023-03-04T04:33:47.933Z,60.56
2023-03-04T04:36:16.937Z,60.50
2023-03-04T04:38:46.044Z,60.80
2023-03-04T04:41:25.410Z,60.81
2023-03-04T04:43:54.256Z,60.84
2023-03-04T04:46:22.704Z,60.40
2023-03-04T04:48:50.970Z,60.55
2023-03-04T04:51:22.117Z,60.73
2023-03-04T04:53:50.542Z,60.47
2023-03-04T04:56:23.257Z,60.38
2023-03-04T04:58:51.413Z,60.96
2023-03-04T05:01:19.584Z,61.79
2023-03-04T05:03:50.053Z,61.09
2023-03-04T05:06:18.689Z,60.97
2023-03-04T05:08:47.135Z,60.99
2023-03-04T05:11:16.039Z,60.92
2023-03-04T05:13:44.680Z,61.66
2023-03-04T05:16:13.779Z,61.46
2023-03-04T05:18:42.212Z,61.55
2023-03-04T05:21:10.918Z,61.60
2023-03-04T05:23:43.517Z,62.06
2023-03-04T05:26:15.848Z,61.45
2023-03-04T05:28:44.431Z,61.65
2023-03-04T05:31:13.096Z,61.57
2023-03-04T05:33:41.309Z,62.09
2023-03-04T05:36:10.362Z,62.01
2023-03-04T05:38:38.775Z,62.00
2023-03-04T05:41:08.308Z,62.17
2023-03-04T05:43:36.781Z,61.72
2023-03-04T05:46:05.375Z,61.84
2023-03-04T05:48:33.740Z,61.82
2023-03-04T05:51:02.845Z,61.45
2023-03-04T05:53:31.488Z,61.57
2023-03-04T05:56:00.885Z,61.37
2023-03-04T05:58:29.307Z,61.40
2023-03-04T06:01:00.928Z,61.67
2023-03-04T06:03:40.093Z,61.52
2023-03-04T06:06:11.223Z,62.16
2023-03-04T06:08:39.948Z,62.09
2023-03-04T06:11:11.025Z,62.16
2023-03-04T06:13:39.389Z,61.81
2023-03-04T06:16:08.029Z,62.16
2023-03-04T06:18:36.321Z,62.28
2023-03-04T06:21:04.927Z,62.48
2023-03-04T06:23:33.352Z,62.09
2023-03-04T06:26:03.506Z,62.06
2023-03-04T06:28:32.128Z,61.79
2023-03-04T06:31:00.751Z,61.82
2023-03-04T06:33:29.089Z,61.85
2023-03-04T06:35:58.404Z,61.80
2023-03-04T06:38:27.807Z,61.72
2023-03-04T06:40:57.568Z,61.67
2023-03-04T06:43:26.298Z,61.93
2023-03-04T06:45:55.776Z,61.82
2023-03-04T06:48:24.286Z,61.86
2023-03-04T06:50:52.658Z,61.43
2023-03-04T06:53:21.373Z,61.95
2023-03-04T06:55:50.226Z,61.80
2023-03-04T06:58:18.780Z,61.91
2023-03-04T07:00:46.924Z,61.79
2023-03-04T07:03:15.222Z,61.76
2023-03-04T07:05:44.010Z,62.01
2023-03-04T07:08:12.087Z,62.79
2023-03-04T07:10:40.324Z,63.41
2023-03-04T07:13:08.553Z,62.61
2023-03-04T07:15:38.756Z,62.48
2023-03-04T07:18:07.772Z,62.72
2023-03-04T07:20:35.992Z,62.52
2023-03-04T07:23:05.386Z,63.39
2023-03-04T07:25:34.325Z,62.84
2023-03-04T07:28:03.370Z,62.87
2023-03-04T07:30:31.856Z,63.09
2023-03-04T07:33:00.234Z,63.84
2023-03-04T07:35:28.920Z,63.28
2023-03-04T07:37:57.349Z,63.86
2023-03-04T07:40:26.272Z,64.55
2023-03-04T07:42:56.356Z,64.88
2023-03-04T07:45:25.301Z,65.38
2023-03-04T07:47:54.537Z,64.75
2023-03-04T07:50:23.624Z,65.14
2023-03-04T07:52:52.370Z,64.91
2023-03-04T07:55:20.739Z,64.46
2023-03-04T07:57:48.989Z,64.25
2023-03-04T08:00:18.188Z,64.24
2023-03-04T08:02:46.813Z,64.43
2023-03-04T08:05:15.849Z,64.80
2023-03-04T08:07:44.054Z,64.66
2023-03-04T08:10:12.676Z,64.39
2023-03-04T08:12:41.170Z,65.11
2023-03-04T08:15:09.816Z,64.60
2023-03-04T08:17:38.823Z,64.50
2023-03-04T08:20:08.817Z,65.18
2023-03-04T08:22:37.466Z,65.40
2023-03-04T08:25:06.153Z,65.24
2023-03-04T08:27:34.947Z,65.12
2023-03-04T08:30:05.637Z,65.12
2023-03-04T08:32:34.113Z,65.45
2023-03-04T08:35:02.989Z,66.39
2023-03-04T08:37:31.354Z,65.89
2023-03-04T08:40:02.452Z,65.94
2023-03-04T08:42:32.400Z,65.90
2023-03-04T08:45:00.625Z,66.15
2023-03-04T08:47:29.848Z,66.54
2023-03-04T08:49:58.834Z,66.79
2023-03-04T08:52:28.853Z,66.48
2023-03-04T08:54:57.711Z,67.45
2023-03-04T08:57:26.097Z,67.33
2023-03-04T08:59:54.197Z,67.23
2023-03-04T09:02:22.702Z,66.82
2023-03-04T09:04:50.938Z,67.32
2023-03-04T09:07:19.477Z,66.99
2023-03-04T09:09:47.853Z,66.59
2023-03-04T09:12:16.296Z,66.48
2023-03-04T09:14:44.602Z,66.48
2023-03-04T09:17:12.843Z,66.45
2023-03-04T09:19:41.060Z,66.92
2023-03-04T09:22:10.044Z,66.87
2023-03-04T09:24:38.394Z,67.12
2023-03-04T09:27:09.659Z,67.09
2023-03-04T09:29:37.724Z,67.22
2023-03-04T09:32:06.475Z,67.35
2023-03-04T09:34:34.964Z,67.46
2023-03-04T09:37:03.378Z,67.64
2023-03-04T09:39:34.203Z,67.86
2023-03-04T09:42:04.594Z,68.12
2023-03-04T09:44:43.511Z,68.80
2023-03-04T09:47:17.287Z,66.15
2023-03-04T09:49:59.413Z,64.67
2023-03-04T09:52:42.967Z,62.95
2023-03-04T09:55:28.036Z,62.75
2023-03-04T09:58:22.295Z,62.47
2023-03-04T10:01:05.378Z,62.54
2023-03-04T10:03:45.439Z,63.03
2023-03-04T10:06:19.836Z,62.87
2023-03-04T10:09:04.605Z,62.77
2023-03-04T10:11:42.996Z,62.22
2023-03-04T10:14:23.675Z,61.87
2023-03-04T10:17:08.142Z,61.37
2023-03-04T10:20:04.641Z,60.66
2023-03-04T10:22:39.549Z,61.01
2023-03-04T10:25:30.382Z,61.05
2023-03-04T10:28:03.558Z,60.92
2023-03-04T10:31:00.499Z,60.84
2023-03-04T10:33:40.272Z,61.14
2023-03-04T10:36:17.989Z,61.41
2023-03-04T10:38:51.215Z,61.50
2023-03-04T10:41:25.094Z,61.73
2023-03-04T10:44:17.251Z,61.77
2023-03-04T10:46:48.176Z,61.62
2023-03-04T10:49:20.051Z,61.89
2023-03-04T10:51:55.912Z,61.76
2023-03-04T10:54:42.052Z,61.63
2023-03-04T10:57:20.010Z,61.56
2023-03-04T11:00:01.647Z,61.39
2023-03-04T11:02:37.818Z,61.10
2023-03-04T11:05:15.739Z,60.76
2023-03-04T11:08:05.093Z,60.34
2023-03-04T11:10:36.416Z,56.62
2023-03-04T11:13:24.461Z,52.71
2023-03-04T11:16:05.114Z,50.33
2023-03-04T11:18:41.890Z,47.75
2023-03-04T11:21:40.198Z,45.30
2023-03-04T11:24:29.062Z,44.56
2023-03-04T11:27:06.469Z,43.42
2023-03-04T11:29:56.350Z,43.61
2023-03-04T11:32:41.246Z,42.21
2023-03-04T11:35:27.435Z,41.42
2023-03-04T11:38:19.919Z,40.88
2023-03-04T11:40:57.834Z,40.66
2023-03-04T11:43:37.388Z,40.07
2023-03-04T11:46:14.908Z,39.86
2023-03-04T11:48:49.043Z,40.33
2023-03-04T11:51:41.670Z,39.96
2023-03-04T11:54:32.241Z,39.25
2023-03-04T11:57:13.760Z,38.91
2023-03-04T11:59:42.282Z,39.04
2023-03-04T12:02:29.462Z,38.97
2023-03-04T12:05:38.293Z,38.73
2023-03-04T12:08:31.035Z,37.68
2023-03-04T12:11:28.272Z,36.92
2023-03-04T12:14:02.305Z,33.39
2023-03-04T12:16:45.803Z,29.83
2023-03-04T12:19:23.257Z,26.95
2023-03-04T12:22:22.601Z,25.92
2023-03-04T12:25:30.628Z,24.62
2023-03-04T12:28:24.444Z,24.61
2023-03-04T12:31:24.342Z,24.40
2023-03-04T12:34:23.769Z,22.31
2023-03-04T12:37:10.137Z,21.13
2023-03-04T12:39:45.315Z,20.26
2023-03-04T12:42:31.427Z,18.37
2023-03-04T12:45:11.144Z,17.54
2023-03-04T12:47:55.604Z,17.23
2023-03-04T12:50:38.827Z,16.17
2023-03-04T12:53:14.210Z,15.27
2023-03-04T12:55:45.842Z,15.52
2023-03-04T12:58:20.167Z,15.51
2023-03-04T13:00:53.982Z,15.15
2023-03-04T13:03:38.344Z,14.45
2023-03-04T13:06:48.012Z,13.01
2023-03-04T13:09:27.297Z,11.76
2023-03-04T13:12:12.172Z,11.13
2023-03-04T13:14:40.686Z,10.31
2023-03-04T13:17:43.880Z,9.57
2023-03-04T13:20:30.615Z,9.23
2023-03-04T13:23:14.461Z,8.98
2023-03-04T13:26:04.422Z,8.44
2023-03-04T13:28:36.274Z,8.66
2023-03-04T13:31:10.962Z,8.39
2023-03-04T13:33:39.488Z,8.24
2023-03-04T13:36:32.866Z,7.84
2023-03-04T13:39:16.719Z,8.18
2023-03-04T13:41:54.212Z,8.24
2023-03-04T13:44:45.887Z,9.18
2023-03-04T13:47:21.060Z,9.41
2023-03-04T13:49:49.440Z,8.95
2023-03-04T13:52:39.409Z,10.75
2023-03-04T13:55:44.495Z,11.39
2023-03-04T13:58:26.549Z,12.02
2023-03-04T14:00:56.355Z,13.34
2023-03-04T14:03:28.495Z,12.11
2023-03-04T14:06:18.516Z,13.68
2023-03-04T14:08:47.776Z,15.13
2023-03-04T14:11:39.992Z,13.52
2023-03-04T14:14:13.189Z,15.12
2023-03-04T14:16:50.696Z,16.48
2023-03-04T14:19:50.608Z,17.36
2023-03-04T14:22:31.493Z,18.72
2023-03-04T14:25:22.414Z,19.91
2023-03-04T14:27:51.102Z,20.82
2023-03-04T14:30:40.808Z,20.31
2023-03-04T14:33:18.210Z,21.44
2023-03-04T14:35:49.204Z,22.43
2023-03-04T14:38:32.777Z,22.80
2023-03-04T14:41:25.344Z,23.16
2023-03-04T14:44:04.243Z,23.70
2023-03-04T14:46:40.488Z,24.06
2023-03-04T14:49:14.206Z,24.32
2023-03-04T14:51:53.048Z,24.75
2023-03-04T14:54:40.934Z,25.06
2023-03-04T14:57:34.264Z,24.76
2023-03-04T15:00:30.830Z,21.83
2023-03-04T15:03:03.854Z,22.63
2023-03-04T15:05:36.747Z,21.87
2023-03-04T15:08:19.216Z,22.54
2023-03-04T15:10:58.384Z,20.18
2023-03-04T15:13:45.378Z,19.16
2023-03-04T15:16:19.553Z,18.38
2023-03-04T15:18:59.022Z,16.30
2023-03-04T15:21:32.617Z,15.67
2023-03-04T15:24:03.497Z,17.85
2023-03-04T15:26:41.957Z,19.48
2023-03-04T15:29:20.828Z,20.43
2023-03-04T15:31:49.829Z,21.01
2023-03-04T15:34:22.172Z,21.41
2023-03-04T15:36:51.690Z,21.55
2023-03-04T15:39:22.010Z,22.41
2023-03-04T15:41:57.665Z,22.89
2023-03-04T15:44:26.195Z,23.24
2023-03-04T15:46:54.357Z,23.66
2023-03-04T15:49:22.726Z,24.21
2023-03-04T15:51:50.904Z,24.52
2023-03-04T15:54:24.540Z,24.65
2023-03-04T15:56:53.007Z,24.61
2023-03-04T15:59:21.722Z,24.97
2023-03-04T16:01:50.305Z,25.09
2023-03-04T16:04:18.997Z,25.29
2023-03-04T16:06:48.943Z,25.67
2023-03-04T16:09:20.012Z,25.81
2023-03-04T16:11:48.466Z,25.83
2023-03-04T16:14:17.619Z,25.83
2023-03-04T16:16:50.771Z,26.05
2023-03-04T16:19:19.582Z,26.03
2023-03-04T16:21:47.816Z,26.37
2023-03-04T16:24:18.968Z,26.27
2023-03-04T16:26:49.278Z,26.32
2023-03-04T16:29:17.642Z,26.66
2023-03-04T16:31:46.038Z,26.64
2023-03-04T16:34:14.485Z,26.96
2023-03-04T16:36:43.082Z,27.34
2023-03-04T16:39:22.106Z,27.11
2023-03-04T16:41:51.543Z,27.40
2023-03-04T16:44:19.798Z,27.10
2023-03-04T16:46:48.403Z,27.15
2023-03-04T16:49:17.131Z,27.54
2023-03-04T16:51:50.847Z,27.58
2023-03-04T16:54:30.788Z,27.79
2023-03-04T16:57:00.856Z,27.77
2023-03-04T16:59:29.699Z,27.87
2023-03-04T17:01:58.139Z,27.70
2023-03-04T17:04:26.558Z,27.67
2023-03-04T17:06:55.167Z,28.04
2023-03-04T17:09:23.887Z,27.90
2023-03-04T17:11:53.567Z,28.23
2023-03-04T17:14:23.292Z,28.06
2023-03-04T17:16:51.704Z,28.68
2023-03-04T17:19:19.944Z,28.50
2023-03-04T17:21:51.397Z,28.78
2023-03-04T17:24:19.607Z,28.58
2023-03-04T17:26:48.070Z,28.66
2023-03-04T17:29:16.418Z,28.95
2023-03-04T17:31:45.012Z,29.11
2023-03-04T17:34:16.919Z,28.86
2023-03-04T17:36:45.352Z,29.20
2023-03-04T17:39:14.091Z,29.18
2023-03-04T17:41:42.564Z,29.40
2023-03-04T17:44:14.078Z,29.69
2023-03-04T17:46:42.576Z,29.68
2023-03-04T17:49:12.201Z,29.63
2023-03-04T17:51:41.092Z,29.98
2023-03-04T17:54:10.522Z,29.90
2023-03-04T17:56:39.906Z,30.29
2023-03-04T17:59:14.098Z,29.83
2023-03-04T18:01:45.381Z,30.31
2023-03-04T18:04:15.074Z,30.35
2023-03-04T18:06:43.899Z,30.02
2023-03-04T18:09:14.690Z,30.06
2023-03-04T18:11:44.042Z,30.21
2023-03-04T18:14:16.317Z,30.15
2023-03-04T18:16:44.741Z,29.90
2023-03-04T18:19:12.963Z,30.33
2023-03-04T18:21:44.578Z,30.14
2023-03-04T18:24:13.299Z,30.12
2023-03-04T18:26:41.905Z,30.11
2023-03-04T18:29:10.357Z,30.07
2023-03-04T18:31:38.818Z,30.01
2023-03-04T18:34:08.010Z,30.26
2023-03-04T18:36:36.480Z,30.40
2023-03-04T18:39:07.628Z,30.55
2023-03-04T18:41:36.259Z,30.72
2023-03-04T18:44:05.245Z,30.71
2023-03-04T18:46:53.852Z,30.97
2023-03-04T18:49:23.147Z,31.39
2023-03-04T18:51:52.047Z,31.34
2023-03-04T18:54:20.697Z,31.22
2023-03-04T18:57:00.583Z,31.59
2023-03-04T18:59:40.552Z,31.79
2023-03-04T19:02:33.800Z,32.06
2023-03-04T19:05:06.704Z,32.13
2023-03-04T19:07:34.970Z,32.47
2023-03-04T19:10:04.185Z,32.55
2023-03-04T19:12:34.309Z,32.64
2023-03-04T19:15:06.199Z,32.95
2023-03-04T19:17:36.374Z,32.83
2023-03-04T19:20:06.824Z,33.11
2023-03-04T19:22:35.732Z,33.38
2023-03-04T19:25:04.948Z,33.32
2023-03-04T19:27:36.182Z,33.37
2023-03-04T19:30:06.146Z,33.29
2023-03-04T19:32:36.920Z,33.39
2023-03-04T19:35:05.424Z,33.38
2023-03-04T19:37:34.377Z,33.38
2023-03-04T19:40:03.382Z,33.47
2023-03-04T19:42:31.935Z,33.18
2023-03-04T19:45:02.095Z,33.55
2023-03-04T19:47:30.700Z,33.57
2023-03-04T19:49:59.278Z,33.93
2023-03-04T19:52:28.045Z,34.03
2023-03-04T19:54:59.163Z,33.90
2023-03-04T19:57:31.072Z,34.12
2023-03-04T20:00:04.872Z,34.22
2023-03-04T20:02:33.511Z,34.27
2023-03-04T20:05:02.165Z,33.95
2023-03-04T20:07:33.942Z,34.25
2023-03-04T20:10:02.949Z,34.50
2023-03-04T20:12:32.602Z,34.45
2023-03-04T20:15:01.188Z,34.93
2023-03-04T20:17:29.347Z,34.65
2023-03-04T20:19:57.957Z,34.58
2023-03-04T20:22:26.856Z,34.43
2023-03-04T20:24:57.312Z,34.54
2023-03-04T20:27:26.896Z,34.42
2023-03-04T20:29:55.542Z,34.24
2023-03-04T20:32:23.934Z,34.35
2023-03-04T20:34:57.416Z,34.11
2023-03-04T20:37:26.420Z,34.41
2023-03-04T20:39:57.399Z,34.66
2023-03-04T20:42:25.638Z,34.46
2023-03-04T20:44:54.448Z,34.44
2023-03-04T20:47:23.150Z,33.99
2023-03-04T20:49:54.681Z,34.16
2023-03-04T20:52:23.186Z,34.30
2023-03-04T20:54:51.465Z,34.32
2023-03-04T20:57:19.952Z,34.30
2023-03-04T20:59:48.176Z,34.19
2023-03-04T21:02:17.750Z,34.19
2023-03-04T21:04:49.626Z,34.06
2023-03-04T21:07:27.868Z,34.39
2023-03-04T21:09:57.348Z,34.52
2023-03-04T21:12:26.446Z,34.51
2023-03-04T21:14:54.603Z,34.60
2023-03-04T21:17:25.087Z,34.62
2023-03-04T21:19:54.055Z,34.96
2023-03-04T21:22:22.465Z,34.96
2023-03-04T21:24:50.754Z,35.13
2023-03-04T21:27:18.974Z,35.24
2023-03-04T21:29:49.623Z,35.31
2023-03-04T21:32:25.396Z,35.38
2023-03-04T21:34:55.646Z,35.65
2023-03-04T21:37:25.809Z,35.75
2023-03-04T21:39:58.421Z,36.00
2023-03-04T21:42:26.810Z,36.17
2023-03-04T21:44:55.226Z,36.31
2023-03-04T21:47:23.751Z,36.50
2023-03-04T21:49:52.143Z,36.79
2023-03-04T21:52:21.488Z,36.77
2023-03-04T21:54:53.317Z,37.03
2023-03-04T21:57:22.913Z,37.27
2023-03-04T21:59:51.307Z,37.53
2023-03-04T22:02:22.253Z,37.58
2023-03-04T22:04:52.039Z,37.72
2023-03-04T22:07:21.426Z,37.77
2023-03-04T22:09:50.066Z,38.26
2023-03-04T22:12:19.710Z,38.22
2023-03-04T22:14:48.339Z,38.49
2023-03-04T22:17:17.065Z,38.66
2023-03-04T22:19:46.094Z,38.86
2023-03-04T22:22:18.148Z,39.15
2023-03-04T22:24:46.520Z,39.71
2023-03-04T22:27:14.884Z,40.29
2023-03-04T22:29:43.270Z,40.39
2023-03-04T22:32:11.509Z,40.97
2023-03-04T22:34:39.790Z,41.46
2023-03-04T22:37:08.242Z,41.09
2023-03-04T22:39:36.586Z,41.01
2023-03-04T22:42:07.120Z,41.15
2023-03-04T22:44:37.052Z,41.28
2023-03-04T22:47:05.638Z,41.07
2023-03-04T22:49:34.712Z,41.29
2023-03-04T22:52:03.354Z,41.22
2023-03-04T22:54:33.761Z,41.55
2023-03-04T22:57:02.448Z,41.55
2023-03-04T22:59:32.390Z,41.76
2023-03-04T23:02:01.289Z,42.12
2023-03-04T23:04:29.915Z,42.17
2023-03-04T23:06:58.196Z,42.37
2023-03-04T23:09:26.943Z,42.10
2023-03-04T23:11:55.734Z,42.19
2023-03-04T23:14:24.605Z,42.21
2023-03-04T23:16:53.279Z,42.02
2023-03-04T23:19:22.332Z,42.33
2023-03-04T23:21:50.913Z,42.46
2023-03-04T23:24:20.560Z,42.39
2023-03-04T23:26:49.221Z,42.64
2023-03-04T23:29:18.837Z,42.83
2023-03-04T23:31:47.439Z,42.95
2023-03-04T23:34:16.099Z,42.75
2023-03-04T23:36:44.986Z,42.90
2023-03-04T23:39:14.378Z,43.06
2023-03-04T23:41:42.934Z,42.92
2023-03-04T23:44:13.139Z,42.91
2023-03-04T23:46:41.895Z,42.77
2023-03-04T23:49:14.457Z,43.00
2023-03-04T23:51:44.769Z,43.17
2023-03-04T23:54:14.460Z,43.09
2023-03-04T23:56:43.203Z,43.22
2023-03-04T23:59:12.783Z,43.23
